Time;durP1;ratioP1;P1;durP2;ratioP2;P2;SDS_P1;SDS_P2;PMS_P1;PMS_P2;Temp;Humidity;BMP_temperature;BMP_pressure;BME280_temperature;BME280_humidity;BME280_pressure;Samples;Min_cycle;Max_cycle;Signal;HPM_P1;HPM_P2
2021/08/25 00:00:12;;;;;;;;;;;16.70;72.00;;;;;;5027985;28;19935;-77
2021/08/25 00:02:38;;;;;;;;;;;16.60;71.80;;;;;;5026442;28;19917;-78
2021/08/25 00:05:06;;;;;;;;;;;16.60;71.80;;;;;;5026436;28;19975;-77
2021/08/25 00:07:32;;;;;;;;;;;16.60;71.80;;;;;;5028072;28;19909;-78
2021/08/25 00:09:57;;;;;;;;;;;16.60;71.90;;;;;;5026535;28;19967;-76
2021/08/25 00:12:23;;;;;;;;;;;16.50;72.00;;;;;;5027779;28;20430;-77
2021/08/25 00:14:48;;;;;;;;;;;16.60;72.10;;;;;;5010245;28;19915;-77
2021/08/25 00:17:14;;;;;;;;;;;16.60;72.10;;;;;;5031605;28;19905;-76
2021/08/25 00:19:41;;;;;;;;;;;16.60;72.00;;;;;;5013816;28;19909;-76
2021/08/25 00:22:07;;;;;;;;;;;16.70;72.00;;;;;;5031483;28;19921;-77
2021/08/25 00:24:32;;;;;;;;;;;16.70;71.90;;;;;;5031297;28;19910;-75
2021/08/25 00:26:58;;;;;;;;;;;16.70;71.90;;;;;;5029969;28;20239;-77
2021/08/25 00:29:23;;;;;;;;;;;16.70;71.90;;;;;;5030060;28;20012;-77
2021/08/25 00:31:49;;;;;;;;;;;16.70;71.90;;;;;;5029945;28;19912;-76
2021/08/25 00:34:15;;;;;;;;;;;16.70;71.90;;;;;;5031202;28;19909;-77
2021/08/25 00:36:40;;;;;;;;;;;16.80;71.90;;;;;;5031280;28;19971;-78
2021/08/25 00:39:06;;;;;;;;;;;16.70;71.80;;;;;;5031279;28;20004;-76
2021/08/25 00:41:31;;;;;;;;;;;16.70;71.70;;;;;;5031303;28;19909;-78
2021/08/25 00:43:58;;;;;;;;;;;16.60;71.80;;;;;;5029697;28;19923;-77
2021/08/25 00:46:24;;;;;;;;;;;16.50;72.00;;;;;;5031047;28;20290;-76
2021/08/25 00:48:49;;;;;;;;;;;16.40;72.10;;;;;;5029544;28;19919;-77
2021/08/25 00:51:16;;;;;;;;;;;16.40;72.20;;;;;;5031051;28;19905;-76
2021/08/25 00:53:42;;;;;;;;;;;16.40;72.70;;;;;;5031085;28;19916;-76
2021/08/25 00:56:08;;;;;;;;;;;16.50;72.30;;;;;;5031002;28;19937;-76
2021/08/25 00:58:38;;;;;;;;;;;16.50;72.20;;;;;;5030950;28;19959;-77
2021/08/25 01:01:08;;;;;;;;;;;16.50;72.10;;;;;;5030940;28;20004;-77
2021/08/25 01:03:57;;;;;;;;;;;16.60;72.10;;;;;;5029349;28;20550;-76
2021/08/25 01:06:23;;;;;;;;;;;16.70;72.10;;;;;;5027423;28;19932;-76
2021/08/25 01:08:49;;;;;;;;;;;16.70;72.10;;;;;;5030771;28;19908;-77
2021/08/25 01:11:15;;;;;;;;;;;16.60;72.20;;;;;;5030654;28;19905;-77
2021/08/25 01:13:40;;;;;;;;;;;16.60;72.20;;;;;;5030555;28;19949;-77
2021/08/25 01:16:07;;;;;;;;;;;16.50;72.40;;;;;;5030622;28;19909;-77
2021/08/25 01:18:33;;;;;;;;;;;16.50;72.50;;;;;;5029311;28;20384;-77
2021/08/25 01:21:02;;;;;;;;;;;16.40;72.50;;;;;;5030400;28;19928;-76
2021/08/25 01:23:28;;;;;;;;;;;16.30;72.50;;;;;;5030488;28;19913;-77
2021/08/25 01:25:54;;;;;;;;;;;16.30;72.50;;;;;;5028984;28;19923;-75
2021/08/25 01:28:22;;;;;;;;;;;16.30;72.60;;;;;;5027852;28;20443;-76
2021/08/25 01:30:49;;;;;;;;;;;16.20;72.50;;;;;;5029186;28;19905;-78
2021/08/25 01:33:21;;;;;;;;;;;16.20;72.50;;;;;;5030425;28;19905;-77
2021/08/25 01:35:47;;;;;;;;;;;16.20;72.50;;;;;;5030227;28;19909;-76
2021/08/25 01:38:22;;;;;;;;;;;16.10;72.40;;;;;;5030250;28;20138;-76
2021/08/25 01:40:47;;;;;;;;;;;16.10;72.40;;;;;;5030115;28;19912;-78
2021/08/25 01:43:13;;;;;;;;;;;16.00;72.40;;;;;;5030135;28;19916;-77
2021/08/25 01:45:38;;;;;;;;;;;16.00;72.30;;;;;;5030056;28;19912;-76
2021/08/25 01:48:04;;;;;;;;;;;16.00;72.40;;;;;;5030063;28;19915;-76
2021/08/25 01:50:29;;;;;;;;;;;16.00;72.30;;;;;;5012300;28;19912;-78
2021/08/25 01:52:55;;;;;;;;;;;15.90;72.30;;;;;;5012104;28;19909;-77
2021/08/25 01:55:21;;;;;;;;;;;15.90;72.30;;;;;;5028539;28;19913;-76
2021/08/25 01:57:46;;;;;;;;;;;15.80;72.40;;;;;;5028591;28;19909;-76
2021/08/25 02:00:12;;;;;;;;;;;15.80;72.40;;;;;;5029799;28;19950;-77
2021/08/25 02:02:38;;;;;;;;;;;15.80;72.40;;;;;;5029631;28;20402;-77
2021/08/25 02:05:04;;;;;;;;;;;15.80;72.40;;;;;;5029643;28;20134;-77
2021/08/25 02:07:29;;;;;;;;;;;15.80;72.30;;;;;;5028396;28;19908;-77
2021/08/25 02:09:55;;;;;;;;;;;15.90;72.30;;;;;;5029489;28;20367;-77
2021/08/25 02:12:20;;;;;;;;;;;15.80;72.30;;;;;;5029663;28;20015;-77
2021/08/25 02:14:46;;;;;;;;;;;15.80;72.40;;;;;;5029564;28;19916;-76
2021/08/25 02:17:12;;;;;;;;;;;15.70;72.40;;;;;;5029449;28;19917;-77
2021/08/25 02:19:37;;;;;;;;;;;15.70;72.50;;;;;;5029470;28;19962;-78
2021/08/25 02:22:03;;;;;;;;;;;15.70;72.40;;;;;;5011312;28;19925;-77
2021/08/25 02:24:29;;;;;;;;;;;15.60;72.40;;;;;;5029259;28;19921;-76
2021/08/25 02:26:54;;;;;;;;;;;15.60;72.40;;;;;;5029407;28;19916;-76
2021/08/25 02:29:20;;;;;;;;;;;15.60;72.40;;;;;;5029419;28;19999;-77
2021/08/25 02:31:45;;;;;;;;;;;15.60;72.40;;;;;;5029186;28;19909;-76
2021/08/25 02:34:11;;;;;;;;;;;15.60;72.40;;;;;;5027799;28;19951;-77
2021/08/25 02:36:36;;;;;;;;;;;15.60;72.50;;;;;;5029083;28;19909;-77
2021/08/25 02:39:02;;;;;;;;;;;15.50;72.50;;;;;;5028657;28;19910;-77
2021/08/25 02:41:28;;;;;;;;;;;15.50;72.60;;;;;;5029028;28;19905;-77
2021/08/25 02:43:53;;;;;;;;;;;15.50;72.60;;;;;;5028832;28;19940;-76
2021/08/25 02:46:19;;;;;;;;;;;15.50;72.50;;;;;;5027698;28;19950;-76
2021/08/25 02:48:44;;;;;;;;;;;15.50;72.50;;;;;;5028860;28;19905;-78
2021/08/25 02:51:10;;;;;;;;;;;15.40;72.40;;;;;;5027585;28;19909;-77
2021/08/25 02:53:36;;;;;;;;;;;15.40;72.40;;;;;;5028780;28;20000;-77
2021/08/25 02:56:01;;;;;;;;;;;15.30;72.50;;;;;;5027529;28;19941;-76
2021/08/25 02:58:27;;;;;;;;;;;15.30;72.60;;;;;;5028871;28;19905;-76
2021/08/25 03:00:54;;;;;;;;;;;15.30;72.60;;;;;;5028688;28;20144;-76
2021/08/25 03:03:20;;;;;;;;;;;15.30;72.60;;;;;;5027205;28;19913;-76
2021/08/25 03:05:45;;;;;;;;;;;15.30;72.60;;;;;;5028588;28;20240;-76
2021/08/25 03:08:11;;;;;;;;;;;15.30;72.50;;;;;;5028563;28;19955;-76
2021/08/25 03:10:36;;;;;;;;;;;15.30;72.50;;;;;;5027172;28;19909;-75
2021/08/25 03:13:02;;;;;;;;;;;15.20;72.50;;;;;;5028622;28;19909;-76
2021/08/25 03:15:28;;;;;;;;;;;15.20;72.50;;;;;;5028430;28;19909;-76
2021/08/25 03:17:53;;;;;;;;;;;15.20;72.50;;;;;;5028383;28;19917;-77
2021/08/25 03:20:19;;;;;;;;;;;15.20;72.60;;;;;;5027028;28;19952;-77
2021/08/25 03:22:44;;;;;;;;;;;15.10;72.60;;;;;;5026860;28;19917;-76
2021/08/25 03:25:10;;;;;;;;;;;15.00;72.70;;;;;;5028140;28;19917;-77
2021/08/25 03:27:36;;;;;;;;;;;15.00;72.80;;;;;;5028450;28;20268;-77
2021/08/25 03:30:01;;;;;;;;;;;15.00;72.70;;;;;;5028314;28;19913;-76
2021/08/25 03:32:27;;;;;;;;;;;15.00;72.70;;;;;;5028216;28;19905;-76
2021/08/25 03:34:52;;;;;;;;;;;15.00;72.70;;;;;;5028134;28;19909;-75
2021/08/25 03:37:18;;;;;;;;;;;15.00;72.70;;;;;;5028072;28;19917;-76
2021/08/25 03:39:43;;;;;;;;;;;15.00;72.70;;;;;;5028070;28;20364;-76
2021/08/25 03:42:09;;;;;;;;;;;14.90;72.60;;;;;;5026776;28;19916;-78
2021/08/25 03:44:36;;;;;;;;;;;14.90;72.70;;;;;;5027956;28;20376;-77
2021/08/25 03:47:01;;;;;;;;;;;14.90;72.90;;;;;;5026743;28;20371;-76
2021/08/25 03:49:27;;;;;;;;;;;14.80;72.80;;;;;;5027444;28;19941;-76
2021/08/25 03:51:52;;;;;;;;;;;14.80;72.70;;;;;;5026585;28;20300;-78
2021/08/25 03:54:18;;;;;;;;;;;14.80;72.70;;;;;;5026324;28;19909;-76
2021/08/25 03:56:43;;;;;;;;;;;14.80;72.70;;;;;;5026438;28;19909;-75
2021/08/25 03:59:09;;;;;;;;;;;14.80;72.80;;;;;;5026345;28;20449;-75
2021/08/25 04:01:35;;;;;;;;;;;14.80;72.80;;;;;;5027613;28;20375;-76
2021/08/25 04:04:06;;;;;;;;;;;14.80;72.90;;;;;;5009989;28;19960;-75
2021/08/25 04:06:32;;;;;;;;;;;14.80;72.80;;;;;;5027847;28;19924;-77
2021/08/25 04:08:57;;;;;;;;;;;14.90;72.80;;;;;;5026553;28;19908;-76
2021/08/25 04:11:23;;;;;;;;;;;14.90;72.90;;;;;;5027786;28;19921;-75
2021/08/25 04:13:49;;;;;;;;;;;14.90;72.80;;;;;;5027760;28;19916;-77
2021/08/25 04:16:14;;;;;;;;;;;15.00;72.90;;;;;;5026386;28;19919;-78
2021/08/25 04:18:40;;;;;;;;;;;15.00;72.90;;;;;;5027709;28;20267;-76
2021/08/25 04:21:05;;;;;;;;;;;15.00;73.00;;;;;;5027576;28;20339;-76
2021/08/25 04:23:31;;;;;;;;;;;15.10;73.00;;;;;;5026285;28;20004;-77
2021/08/25 04:25:56;;;;;;;;;;;15.10;73.00;;;;;;5026429;28;19909;-76
2021/08/25 04:28:22;;;;;;;;;;;15.10;72.90;;;;;;5027595;28;19913;-77
2021/08/25 04:30:47;;;;;;;;;;;15.10;72.90;;;;;;5026493;28;19909;-77
2021/08/25 04:33:13;;;;;;;;;;;15.10;72.90;;;;;;5027559;28;19921;-77
2021/08/25 04:35:39;;;;;;;;;;;15.10;72.80;;;;;;5027495;28;20322;-75
2021/08/25 04:38:04;;;;;;;;;;;15.00;72.70;;;;;;5027407;28;19991;-77
2021/08/25 04:40:30;;;;;;;;;;;15.00;72.80;;;;;;5026164;28;19913;-77
2021/08/25 04:42:55;;;;;;;;;;;14.90;72.90;;;;;;5026078;28;19939;-75
2021/08/25 04:45:21;;;;;;;;;;;14.90;73.00;;;;;;5026293;28;19917;-76
2021/08/25 04:47:47;;;;;;;;;;;14.90;73.30;;;;;;5026079;28;19913;-78
2021/08/25 04:50:12;;;;;;;;;;;14.90;73.20;;;;;;5026132;28;19916;-77
2021/08/25 04:52:38;;;;;;;;;;;14.80;73.10;;;;;;5026137;28;19924;-75
2021/08/25 04:55:04;;;;;;;;;;;14.80;73.10;;;;;;5027371;28;19976;-75
2021/08/25 04:57:29;;;;;;;;;;;14.80;73.10;;;;;;5009720;28;19931;-75
2021/08/25 04:59:55;;;;;;;;;;;14.80;73.20;;;;;;5027385;28;19909;-77
2021/08/25 05:02:20;;;;;;;;;;;14.80;73.40;;;;;;5029835;28;19909;-77
2021/08/25 05:04:47;;;;;;;;;;;14.80;73.50;;;;;;5013074;28;19920;-77
2021/08/25 05:07:13;;;;;;;;;;;14.70;73.40;;;;;;5013118;28;20275;-76
2021/08/25 05:09:38;;;;;;;;;;;14.70;73.30;;;;;;5029493;28;19920;-77
2021/08/25 05:12:04;;;;;;;;;;;14.70;73.40;;;;;;5030653;28;19909;-76
2021/08/25 05:14:29;;;;;;;;;;;14.80;73.60;;;;;;5030967;28;20457;-76
2021/08/25 05:16:55;;;;;;;;;;;14.80;73.60;;;;;;5030619;28;19919;-77
2021/08/25 05:19:20;;;;;;;;;;;14.90;73.60;;;;;;5030488;28;19909;-76
2021/08/25 05:21:46;;;;;;;;;;;14.90;73.60;;;;;;5028943;28;19924;-77
2021/08/25 05:24:11;;;;;;;;;;;15.00;73.70;;;;;;5029209;28;19913;-76
2021/08/25 05:26:37;;;;;;;;;;;15.00;73.80;;;;;;5030199;28;20003;-76
2021/08/25 05:29:02;;;;;;;;;;;15.00;73.60;;;;;;5028911;28;19920;-77
2021/08/25 05:31:28;;;;;;;;;;;15.10;73.70;;;;;;5029100;28;19915;-75
2021/08/25 05:33:56;;;;;;;;;;;15.10;73.90;;;;;;5030188;28;19913;-77
2021/08/25 05:36:22;;;;;;;;;;;15.10;73.90;;;;;;5028841;28;20220;-77
2021/08/25 05:38:47;;;;;;;;;;;15.10;73.90;;;;;;5030658;28;19940;-77
2021/08/25 05:41:13;;;;;;;;;;;15.20;74.10;;;;;;5030254;28;19913;-76
2021/08/25 05:43:38;;;;;;;;;;;15.20;74.10;;;;;;5029951;28;19917;-76
2021/08/25 05:46:04;;;;;;;;;;;15.30;74.10;;;;;;5028740;28;20059;-76
2021/08/25 05:48:30;;;;;;;;;;;15.40;74.10;;;;;;5030007;28;19987;-77
2021/08/25 05:50:55;;;;;;;;;;;15.40;74.10;;;;;;5030044;28;19905;-78
2021/08/25 05:53:21;;;;;;;;;;;15.50;74.20;;;;;;5029851;28;20368;-76
2021/08/25 05:55:46;;;;;;;;;;;15.40;74.10;;;;;;5029770;28;19935;-77
2021/08/25 05:58:12;;;;;;;;;;;15.50;74.30;;;;;;5011616;28;19917;-76
2021/08/25 06:00:38;;;;;;;;;;;15.50;74.40;;;;;;5028341;28;19913;-76
2021/08/25 06:03:04;;;;;;;;;;;15.60;74.30;;;;;;5028605;28;19968;-76
2021/08/25 06:05:30;;;;;;;;;;;15.70;74.10;;;;;;5029586;28;20322;-78
2021/08/25 06:07:56;;;;;;;;;;;15.70;74.00;;;;;;5029542;28;19911;-76
2021/08/25 06:10:22;;;;;;;;;;;15.70;73.90;;;;;;5011661;28;19909;-77
2021/08/25 06:12:47;;;;;;;;;;;15.60;73.90;;;;;;5027556;28;20284;-73
2021/08/25 06:15:13;;;;;;;;;;;15.50;73.80;;;;;;5027974;28;19963;-74
2021/08/25 06:17:38;;;;;;;;;;;15.40;74.10;;;;;;5029430;28;19920;-74
2021/08/25 06:20:04;;;;;;;;;;;15.30;74.10;;;;;;5029434;28;19905;-76
2021/08/25 06:22:30;;;;;;;;;;;15.30;74.20;;;;;;5028900;28;20485;-77
2021/08/25 06:24:56;;;;;;;;;;;15.30;74.20;;;;;;5028984;28;20475;-78
2021/08/25 06:27:21;;;;;;;;;;;15.30;74.10;;;;;;5027563;28;19956;-76
2021/08/25 06:29:47;;;;;;;;;;;15.30;74.10;;;;;;5029053;28;19959;-77
2021/08/25 06:32:13;;;;;;;;;;;15.40;74.00;;;;;;5029251;28;19920;-77
2021/08/25 06:34:38;;;;;;;;;;;15.40;74.00;;;;;;5028971;28;20271;-76
2021/08/25 06:37:04;;;;;;;;;;;15.40;74.00;;;;;;5027633;28;19912;-77
2021/08/25 06:39:29;;;;;;;;;;;15.50;74.00;;;;;;5027710;28;20043;-77
2021/08/25 06:41:55;;;;;;;;;;;15.50;74.00;;;;;;5027960;28;19910;-77
2021/08/25 06:44:20;;;;;;;;;;;15.60;74.10;;;;;;5028615;28;20459;-78
2021/08/25 06:46:46;;;;;;;;;;;15.70;74.00;;;;;;5028577;28;19996;-78
2021/08/25 06:49:12;;;;;;;;;;;15.80;74.00;;;;;;5028675;28;19928;-76
2021/08/25 06:51:37;;;;;;;;;;;15.80;74.00;;;;;;5028709;28;20277;-77
2021/08/25 06:54:03;;;;;;;;;;;15.90;74.10;;;;;;5028503;28;20011;-77
2021/08/25 06:56:28;;;;;;;;;;;16.00;74.20;;;;;;5028524;28;19916;-77
2021/08/25 06:58:54;;;;;;;;;;;16.10;74.40;;;;;;5027203;28;19912;-77
2021/08/25 07:01:21;;;;;;;;;;;16.20;74.20;;;;;;5027187;28;19909;-76
2021/08/25 07:03:46;;;;;;;;;;;16.30;74.30;;;;;;5028010;28;20362;-77
2021/08/25 07:06:12;;;;;;;;;;;16.40;74.30;;;;;;5010408;28;20005;-77
2021/08/25 07:08:37;;;;;;;;;;;16.50;74.60;;;;;;5028153;28;20202;-77
2021/08/25 07:11:03;;;;;;;;;;;16.60;74.40;;;;;;5028209;28;20111;-76
2021/08/25 07:13:29;;;;;;;;;;;16.80;74.70;;;;;;5028259;28;20431;-76
2021/08/25 07:15:54;;;;;;;;;;;17.00;75.00;;;;;;5027857;28;20339;-78
2021/08/25 07:18:20;;;;;;;;;;;17.30;74.80;;;;;;5026899;28;19909;-78
2021/08/25 07:20:45;;;;;;;;;;;17.40;74.50;;;;;;5027977;28;19917;-79
2021/08/25 07:23:11;;;;;;;;;;;17.50;74.20;;;;;;5026644;28;19915;-77
2021/08/25 07:25:36;;;;;;;;;;;17.50;74.30;;;;;;5027673;28;19909;-77
2021/08/25 07:28:02;;;;;;;;;;;17.60;74.50;;;;;;5027727;28;19916;-78
2021/08/25 07:30:28;;;;;;;;;;;17.60;74.50;;;;;;5027607;28;20407;-77
2021/08/25 07:32:53;;;;;;;;;;;17.80;75.40;;;;;;5027998;28;19925;-76
2021/08/25 07:35:19;;;;;;;;;;;18.30;75.60;;;;;;5026699;28;20011;-78
2021/08/25 07:37:44;;;;;;;;;;;18.80;75.60;;;;;;5027896;28;20322;-78
2021/08/25 07:40:10;;;;;;;;;;;19.50;75.20;;;;;;5027705;28;19924;-77
2021/08/25 07:42:36;;;;;;;;;;;20.10;74.40;;;;;;5027602;28;19913;-77
2021/08/25 07:45:01;;;;;;;;;;;20.70;74.70;;;;;;5026447;28;19916;-77
2021/08/25 07:47:27;;;;;;;;;;;21.70;75.00;;;;;;5026477;28;20279;-78
2021/08/25 07:49:52;;;;;;;;;;;22.70;74.70;;;;;;5027445;28;20298;-79
2021/08/25 07:52:18;;;;;;;;;;;23.80;74.40;;;;;;5027876;28;20338;-77
2021/08/25 07:54:43;;;;;;;;;;;24.80;73.80;;;;;;5026055;28;19909;-78
2021/08/25 07:57:09;;;;;;;;;;;25.80;73.30;;;;;;5027506;28;19949;-76
2021/08/25 07:59:34;;;;;;;;;;;26.50;72.40;;;;;;5025922;28;19959;-78
2021/08/25 08:02:00;;;;;;;;;;;27.00;72.10;;;;;;5027384;28;19916;-76
2021/08/25 08:04:26;;;;;;;;;;;27.30;70.80;;;;;;5025824;28;19917;-75
2021/08/25 08:06:52;;;;;;;;;;;27.40;71.50;;;;;;5026122;28;20283;-75
2021/08/25 08:09:18;;;;;;;;;;;27.90;72.00;;;;;;5027455;28;19910;-77
2021/08/25 08:11:44;;;;;;;;;;;28.40;71.80;;;;;;5025950;28;19916;-77
2021/08/25 08:14:09;;;;;;;;;;;28.80;71.80;;;;;;5027186;28;20053;-77
2021/08/25 08:16:35;;;;;;;;;;;28.50;70.70;;;;;;5025935;28;19909;-76
2021/08/25 08:19:04;;;;;;;;;;;28.20;71.00;;;;;;5027226;28;19941;-77
2021/08/25 08:21:30;;;;;;;;;;;28.40;71.80;;;;;;5025646;28;19949;-76
2021/08/25 08:23:57;;;;;;;;;;;28.80;72.00;;;;;;5025676;28;19909;-78
2021/08/25 08:26:25;;;;;;;;;;;28.80;71.60;;;;;;5026620;28;20052;-77
2021/08/25 08:28:50;;;;;;;;;;;28.60;72.00;;;;;;5026863;28;20263;-78
2021/08/25 08:31:16;;;;;;;;;;;28.80;73.10;;;;;;5026625;28;19966;-75
2021/08/25 08:33:42;;;;;;;;;;;29.50;73.40;;;;;;5027352;28;20348;-78
2021/08/25 08:36:08;;;;;;;;;;;30.20;73.10;;;;;;5027584;28;19943;-78
2021/08/25 08:38:33;;;;;;;;;;;30.80;72.70;;;;;;5030749;28;20276;-77
2021/08/25 08:40:59;;;;;;;;;;;31.20;72.80;;;;;;5029265;28;19916;-77
2021/08/25 08:43:25;;;;;;;;;;;31.60;72.00;;;;;;5029411;28;20018;-80
2021/08/25 08:45:51;;;;;;;;;;;31.70;71.90;;;;;;5030790;28;20171;-77
2021/08/25 08:48:16;;;;;;;;;;;32.00;72.50;;;;;;5030679;28;20466;-77
2021/08/25 08:50:43;;;;;;;;;;;32.30;72.80;;;;;;5030629;28;19909;-79
2021/08/25 08:53:10;;;;;;;;;;;32.70;72.20;;;;;;5030426;28;19947;-78
2021/08/25 08:55:36;;;;;;;;;;;32.50;70.90;;;;;;5030522;28;20457;-78
2021/08/25 08:58:01;;;;;;;;;;;32.00;69.80;;;;;;5030013;28;19917;-77
2021/08/25 09:00:27;;;;;;;;;;;31.50;70.10;;;;;;5030426;28;20012;-78
2021/08/25 09:02:52;;;;;;;;;;;31.10;70.30;;;;;;5030184;28;20360;-76
2021/08/25 09:05:18;;;;;;;;;;;30.70;70.20;;;;;;5028598;28;19982;-76
2021/08/25 09:07:48;;;;;;;;;;;30.30;70.50;;;;;;5030003;28;20070;-76
2021/08/25 09:10:13;;;;;;;;;;;30.00;70.20;;;;;;5030280;28;19909;-77
2021/08/25 09:12:48;;;;;;;;;;;29.50;69.80;;;;;;5037922;28;19967;-78
2021/08/25 09:15:23;;;;;;;;;;;29.10;70.00;;;;;;5034892;28;20390;-77
2021/08/25 09:17:56;;;;;;;;;;;28.80;70.30;;;;;;5028246;28;19932;-76
2021/08/25 09:20:22;;;;;;;;;;;28.80;70.90;;;;;;5030419;28;19916;-77
2021/08/25 09:23:04;;;;;;;;;;;29.10;71.70;;;;;;5028809;28;20295;-76
2021/08/25 09:25:31;;;;;;;;;;;29.40;71.30;;;;;;5030939;28;19963;-77
2021/08/25 09:27:57;;;;;;;;;;;29.40;71.30;;;;;;5029596;28;19913;-78
2021/08/25 09:30:22;;;;;;;;;;;29.20;71.30;;;;;;5031084;28;19920;-78
2021/08/25 09:32:48;;;;;;;;;;;29.30;71.90;;;;;;5038044;28;20000;-77
2021/08/25 09:35:13;;;;;;;;;;;29.50;71.00;;;;;;5041386;28;19917;-78
2021/08/25 09:37:50;;;;;;;;;;;29.90;71.20;;;;;;5038787;28;20003;-78
2021/08/25 09:40:17;;;;;;;;;;;30.30;71.20;;;;;;5043318;28;19908;-78
2021/08/25 09:42:47;;;;;;;;;;;31.10;71.40;;;;;;5039586;28;19912;-78
2021/08/25 09:45:13;;;;;;;;;;;32.00;71.30;;;;;;5039840;28;19958;-79
2021/08/25 09:47:46;;;;;;;;;;;32.60;70.10;;;;;;5037881;28;19909;-79
2021/08/25 09:50:15;;;;;;;;;;;32.90;70.50;;;;;;5040374;28;19905;-76
2021/08/25 09:52:41;;;;;;;;;;;33.50;69.90;;;;;;5043015;28;20267;-77
2021/08/25 09:55:07;;;;;;;;;;;34.00;70.80;;;;;;5038438;28;19943;-78
2021/08/25 09:57:40;;;;;;;;;;;34.70;70.70;;;;;;5037760;28;19995;-77
2021/08/25 10:00:07;;;;;;;;;;;35.20;68.20;;;;;;5038344;28;20274;-77
2021/08/25 10:02:33;;;;;;;;;;;35.50;68.30;;;;;;5038456;28;20457;-77
2021/08/25 10:04:58;;;;;;;;;;;35.20;67.60;;;;;;5044017;28;20527;-80
2021/08/25 10:07:24;;;;;;;;;;;35.20;67.20;;;;;;5035788;28;19948;-78
2021/08/25 10:09:50;;;;;;;;;;;35.00;67.10;;;;;;5037371;28;19925;-78
2021/08/25 10:12:15;;;;;;;;;;;35.10;68.00;;;;;;5048985;28;19909;-82
2021/08/25 10:14:41;;;;;;;;;;;35.10;67.60;;;;;;5046106;28;19915;-78
2021/08/25 10:17:06;;;;;;;;;;;34.70;66.70;;;;;;5039242;28;19959;-79
2021/08/25 10:19:37;;;;;;;;;;;34.10;66.10;;;;;;5032575;28;20019;-80
2021/08/25 10:22:04;;;;;;;;;;;33.50;66.10;;;;;;5051553;28;20072;-78
2021/08/25 10:24:48;;;;;;;;;;;32.90;66.60;;;;;;5044122;28;19920;-79
2021/08/25 10:27:14;;;;;;;;;;;32.60;67.00;;;;;;5032733;28;19913;-81
2021/08/25 10:29:58;;;;;;;;;;;32.40;67.20;;;;;;5033400;28;20399;-80
2021/08/25 10:32:23;;;;;;;;;;;32.10;67.40;;;;;;5044664;28;20399;-79
2021/08/25 10:35:09;;;;;;;;;;;32.10;67.80;;;;;;5032202;28;19949;-82
2021/08/25 10:37:34;;;;;;;;;;;32.50;68.60;;;;;;5042557;28;19991;-83
2021/08/25 10:40:01;;;;;;;;;;;33.20;67.90;;;;;;5044893;28;19951;-79
2021/08/25 10:42:47;;;;;;;;;;;33.90;67.20;;;;;;5046714;28;20367;-81
2021/08/25 10:45:13;;;;;;;;;;;34.20;66.20;;;;;;5050787;28;19905;-82
2021/08/25 10:47:58;;;;;;;;;;;34.00;66.00;;;;;;5052089;28;19905;-81
2021/08/25 10:50:44;;;;;;;;;;;33.70;66.20;;;;;;5037477;28;19905;-79
2021/08/25 10:53:28;;;;;;;;;;;34.10;66.80;;;;;;5036544;28;19952;-79
2021/08/25 10:56:13;;;;;;;;;;;34.90;67.20;;;;;;5038033;28;19909;-78
2021/08/25 10:58:42;;;;;;;;;;;35.70;67.10;;;;;;5042818;28;19915;-76
2021/08/25 11:01:20;;;;;;;;;;;36.20;64.90;;;;;;5040433;28;19955;-77
2021/08/25 11:03:48;;;;;;;;;;;36.40;64.80;;;;;;5035894;28;19940;-81
2021/08/25 11:06:34;;;;;;;;;;;36.50;63.60;;;;;;5046029;28;19917;-79
2021/08/25 11:09:09;;;;;;;;;;;36.50;63.00;;;;;;5046791;28;19987;-80
2021/08/25 11:11:34;;;;;;;;;;;36.60;62.40;;;;;;5039083;28;20506;-81
2021/08/25 11:14:00;;;;;;;;;;;36.70;62.00;;;;;;5047778;28;19960;-80
2021/08/25 11:16:26;;;;;;;;;;;37.10;62.00;;;;;;5031745;28;20314;-81
2021/08/25 11:18:52;;;;;;;;;;;37.30;61.60;;;;;;5047990;28;20305;-81
2021/08/25 11:21:17;;;;;;;;;;;37.40;60.10;;;;;;5049435;28;19947;-83
2021/08/25 11:23:56;;;;;;;;;;;37.40;59.90;;;;;;5033031;28;20371;-78
2021/08/25 11:26:21;;;;;;;;;;;37.60;59.90;;;;;;5029415;28;19905;-80
2021/08/25 11:28:47;;;;;;;;;;;37.50;59.70;;;;;;5029570;28;19905;-80
2021/08/25 11:31:26;;;;;;;;;;;37.50;60.10;;;;;;5029625;28;19912;-80
2021/08/25 11:33:52;;;;;;;;;;;37.60;60.90;;;;;;5030389;28;19909;-80
2021/08/25 11:36:17;;;;;;;;;;;37.90;60.80;;;;;;5039223;28;19988;-80
2021/08/25 11:38:43;;;;;;;;;;;38.10;60.20;;;;;;5029067;28;19948;-79
2021/08/25 11:41:09;;;;;;;;;;;37.20;59.00;;;;;;5029632;28;19956;-79
2021/08/25 11:43:45;;;;;;;;;;;36.10;58.80;;;;;;5029459;28;19909;-78
2021/08/25 11:46:10;;;;;;;;;;;35.60;60.30;;;;;;5028089;28;19908;-78
2021/08/25 11:48:36;;;;;;;;;;;35.70;60.90;;;;;;5028127;28;20229;-81
2021/08/25 11:51:02;;;;;;;;;;;36.20;61.30;;;;;;5044751;28;20319;-78
2021/08/25 11:53:32;;;;;;;;;;;36.60;60.60;;;;;;5038374;28;19905;-78
2021/08/25 11:55:59;;;;;;;;;;;37.00;60.30;;;;;;5043383;28;20275;-80
2021/08/25 11:58:29;;;;;;;;;;;36.90;59.90;;;;;;5018482;28;19947;-84
2021/08/25 12:00:55;;;;;;;;;;;36.80;59.20;;;;;;5036148;28;19909;-82
2021/08/25 12:03:36;;;;;;;;;;;36.90;59.60;;;;;;5034467;28;19916;-78
2021/08/25 12:06:01;;;;;;;;;;;37.20;60.10;;;;;;5042613;28;20367;-78
2021/08/25 12:08:37;;;;;;;;;;;37.70;59.60;;;;;;5032099;28;19920;-75
2021/08/25 12:11:04;;;;;;;;;;;37.80;59.00;;;;;;5040341;28;20337;-78
2021/08/25 12:13:31;;;;;;;;;;;37.50;58.60;;;;;;5041976;28;20248;-79
2021/08/25 12:15:57;;;;;;;;;;;36.90;58.30;;;;;;5040643;28;19905;-76
2021/08/25 12:18:23;;;;;;;;;;;36.60;58.50;;;;;;5039142;28;19905;-80
2021/08/25 12:20:50;;;;;;;;;;;36.40;58.50;;;;;;5051901;28;19937;-82
2021/08/25 12:23:17;;;;;;;;;;;36.20;58.40;;;;;;5037167;28;20414;-78
2021/08/25 12:25:43;;;;;;;;;;;36.40;58.50;;;;;;5048918;28;19908;-78
2021/08/25 12:28:28;;;;;;;;;;;36.80;58.40;;;;;;5036809;28;19909;-80
2021/08/25 12:30:53;;;;;;;;;;;36.60;57.40;;;;;;5034860;28;19944;-77
2021/08/25 12:33:28;;;;;;;;;;;35.70;56.80;;;;;;5038822;28;19944;-77
2021/08/25 12:35:53;;;;;;;;;;;34.70;57.30;;;;;;5036124;28;19930;-82
2021/08/25 12:38:28;;;;;;;;;;;34.40;58.10;;;;;;5050072;28;20319;-84
2021/08/25 12:40:53;;;;;;;;;;;34.40;57.80;;;;;;5031768;28;20371;-79
2021/08/25 12:43:19;;;;;;;;;;;34.20;57.80;;;;;;5037411;28;19944;-77
2021/08/25 12:45:44;;;;;;;;;;;34.20;57.80;;;;;;5039022;28;19909;-80
2021/08/25 12:48:10;;;;;;;;;;;33.90;57.60;;;;;;5026133;28;19935;-80
2021/08/25 12:50:35;;;;;;;;;;;33.70;58.00;;;;;;5016893;28;20269;-80
2021/08/25 12:53:01;;;;;;;;;;;33.60;57.70;;;;;;5039110;28;19932;-79
2021/08/25 12:55:26;;;;;;;;;;;33.30;57.30;;;;;;5032708;28;19913;-78
2021/08/25 12:57:52;;;;;;;;;;;33.10;57.30;;;;;;5039082;28;19909;-85
2021/08/25 13:00:18;;;;;;;;;;;33.10;57.50;;;;;;5044449;28;19917;-81
2021/08/25 13:02:43;;;;;;;;;;;33.50;57.80;;;;;;5041692;28;19909;-81
2021/08/25 13:05:10;;;;;;;;;;;33.90;58.00;;;;;;5037810;28;20003;-79
2021/08/25 13:07:36;;;;;;;;;;;34.10;58.10;;;;;;5041036;28;20255;-80
2021/08/25 13:10:01;;;;;;;;;;;34.40;57.60;;;;;;5044039;28;19910;-79
2021/08/25 13:12:27;;;;;;;;;;;34.60;57.20;;;;;;5043471;28;19908;-77
2021/08/25 13:14:52;;;;;;;;;;;34.50;56.80;;;;;;5042934;28;20304;-78
2021/08/25 13:17:18;;;;;;;;;;;34.40;56.80;;;;;;5042667;28;20071;-79
2021/08/25 13:19:43;;;;;;;;;;;34.10;56.40;;;;;;5040368;28;19909;-81
2021/08/25 13:22:09;;;;;;;;;;;33.80;56.20;;;;;;5028765;28;19920;-78
2021/08/25 13:24:35;;;;;;;;;;;33.70;56.20;;;;;;5045318;28;19912;-82
2021/08/25 13:27:00;;;;;;;;;;;33.40;56.20;;;;;;5039354;28;19923;-76
2021/08/25 13:29:26;;;;;;;;;;;33.30;56.70;;;;;;5037124;28;20278;-84
2021/08/25 13:31:52;;;;;;;;;;;33.20;56.10;;;;;;5014507;28;20355;-83
2021/08/25 13:34:17;;;;;;;;;;;33.00;55.70;;;;;;5033212;28;19909;-78
2021/08/25 13:36:43;;;;;;;;;;;32.70;55.70;;;;;;5050002;28;20011;-80
2021/08/25 13:39:08;;;;;;;;;;;32.40;55.70;;;;;;5034058;28;19914;-77
2021/08/25 13:41:34;;;;;;;;;;;31.90;55.30;;;;;;5043224;28;19912;-80
2021/08/25 13:43:59;;;;;;;;;;;31.40;55.60;;;;;;5048880;28;19916;-80
2021/08/25 13:46:25;;;;;;;;;;;30.80;55.70;;;;;;5050724;28;19932;-80
2021/08/25 13:48:51;;;;;;;;;;;30.30;56.10;;;;;;5022251;28;19928;-78
2021/08/25 13:51:16;;;;;;;;;;;30.00;56.20;;;;;;5037364;28;19976;-79
2021/08/25 13:53:42;;;;;;;;;;;29.70;56.20;;;;;;5049586;28;19908;-81
2021/08/25 13:56:08;;;;;;;;;;;29.40;56.30;;;;;;5039908;28;19913;-77
2021/08/25 13:58:33;;;;;;;;;;;29.30;56.20;;;;;;5040047;28;19978;-77
2021/08/25 14:00:59;;;;;;;;;;;29.20;56.20;;;;;;5036005;28;19909;-78
2021/08/25 14:03:24;;;;;;;;;;;29.20;56.30;;;;;;5040663;28;20015;-76
2021/08/25 14:05:50;;;;;;;;;;;29.20;56.50;;;;;;5044820;28;19905;-83
2021/08/25 14:08:15;;;;;;;;;;;29.20;56.30;;;;;;5033392;28;19974;-77
2021/08/25 14:10:41;;;;;;;;;;;29.00;56.10;;;;;;5043764;28;19987;-80
2021/08/25 14:13:06;;;;;;;;;;;28.90;56.40;;;;;;5027082;28;19915;-82